Meteo Giornale » Osservazioni meteo Svizzera » Alpnach

ore: 15:50 - Osservazioni Meteo Alpnach
Lat. 46° 57' N Lon. 8° 17' E Alt. 444 metri s.l.m.

sereno Europe/Zurich

17 °C

Sereno

Temp. 24 Ore

0 °C

17 °C

Est/Nord-Est

14.8 Km/h

Dew point 3 °C

Umidità 39 %

Visibilità  10 Km

Il sole sorge alle ore 06:54

Il sole tramonta alle ore 20:03

Data e Ora Cielo e Fenomeni T °C DP °C Um. % Pres. hPa Vis. km Vento km/h
Oggi h: 15:50 sereno Sereno 17 3 39 1020 10 E/NE 14.8
Oggi h: 15:20 sereno Sereno 17 2 36 1020 10 E/NE 18.5
Oggi h: 14:50 sereno Sereno 16 3 41 1020 10 E/NE 16.7
Oggi h: 14:20 sereno Sereno 15 3 44 1021 10 NE 13
Oggi h: 13:50 sereno Sereno 14 3 47 1021 10 NE 14.8
Oggi h: 13:20 sereno Sereno 13 4 54 1022 10 NE 13
Oggi h: 12:50 sereno Sereno 13 3 50 1022 10 NE 14.8
Oggi h: 12:20 sereno Sereno 12 2 50 1022 10 NE 7.4
Oggi h: 11:50 sereno Sereno 11 2 53 1022 10 N 1.8
Oggi h: 11:20 sereno Sereno 10 3 61 1023 10 N 3.7
Oggi h: 10:50 sereno Sereno 9 3 66 1023 10 N 5.5
Oggi h: 10:20 sereno Sereno 8 3 70 1023 10 N 3.7
Oggi h: 09:50 sereno Sereno 7 1 65 1023 10 N 0
Oggi h: 09:20 sereno Sereno 5 1 75 1023 10 N 3.7
Oggi h: 08:50 sereno Sereno 1 -1 86 1023 10 N 3.7
Oggi h: 08:20 sereno Sereno 0 -2 86 1023 10 N 3.7
Oggi h: 07:50 sereno Sereno 1 -1 86 1023 10 N 3.7
Oggi h: 07:20 sereno Sereno 0 -2 86 1022 10 N 1.8
Oggi h: 06:50 sereno Sereno 0 -2 86 1022 10 N 0
Oggi h: 06:20 sereno Sereno 0 -1 92 1022 10 S/SO 7.4
Oggi h: 05:50 sereno Sereno 1 -1 86 1022 10 S 7.4
Oggi h: 05:20 sereno Sereno 1 -1 86 1022 10 N 5.5
Oggi h: 04:50 sereno Sereno 1 -2 80 1022 10 N 5.5
Oggi h: 04:20 sereno Sereno 2 0 86 1022 10 N 5.5
Oggi h: 03:50 sereno Sereno 1 -1 86 1022 10 N 3.7
Oggi h: 03:20 sereno Sereno 1 -1 86 1022 10 S/SO 7.4
Oggi h: 02:50 sereno Sereno 2 0 86 1022 10 N 0
Oggi h: 02:20 sereno Sereno 2 -1 80 1022 10 N 3.7
Oggi h: 01:50 sereno Sereno 3 -0 80 1022 10 N 5.5
Oggi h: 01:20 sereno Sereno 2 -0 86 1022 10 N 5.5
Oggi h: 00:50 sereno Sereno 4 1 80 1022 10 N 5.5
Oggi h: 00:20 sereno Sereno 3 0 80 1022 10 N 5.5
Ieri h: 23:50 sereno Sereno 3 0 80 1022 10 S 7.4
Ieri h: 23:20 sereno Sereno 5 2 80 1022 10 N 5.5
Ieri h: 22:50 sereno Sereno 5 1 75 1022 10 N 3.7
Ieri h: 22:20 sereno Sereno 6 2 75 1022 10 S/SO 7.4
Ieri h: 21:50 sereno Sereno 6 1 70 1022 10 N 3.7
Ieri h: 21:20 sereno Sereno 8 1 61 1022 10 N 3.7
Ieri h: 20:50 sereno Sereno 8 2 65 1021 10 SO 7.4
Ieri h: 20:20 sereno Sereno 10 2 57 1021 10 N 3.7
Ieri h: 19:50 sereno Sereno 10 2 57 1021 10 N 5.5
Ieri h: 19:20 sereno Sereno 12 2 50 1020 10 N/NE 7.4
Ieri h: 18:50 sereno Sereno 14 2 44 1020 10 E/NE 11.1
Ieri h: 18:20 sereno Sereno 14 2 44 1020 10 NE 13
Ieri h: 17:50 sereno Sereno 15 1 38 1020 10 NE 14.8
Ieri h: 17:20 sereno Sereno 15 2 41 1020 10 E/NE 16.7
Ieri h: 16:50 sereno Sereno 15 2 41 1020 10 E/NE 16.7